Time;durP1;ratioP1;P1;durP2;ratioP2;P2;SDS_P1;SDS_P2;PMS_P1;PMS_P2;Temp;Humidity;BMP_temperature;BMP_pressure;BME280_temperature;BME280_humidity;BME280_pressure;Samples;Min_cycle;Max_cycle;Signal;HPM_P1;HPM_P2
2023/03/14 00:03:13;;;;;;;5.7;3.2;;;;;;;9.4;61.9;97290;;;;
2023/03/14 00:13:13;;;;;;;5.3;2.3;;;;;;;9.7;61.3;97280;;;;
2023/03/14 00:24:13;;;;;;;5.3;2.3;;;;;;;10.1;60.6;97270;;;;
2023/03/14 00:34:13;;;;;;;5.3;2.3;;;;;;;9.9;61.4;97250;;;;
2023/03/14 00:44:13;;;;;;;5.5;2.6;;;;;;;9.7;61.8;97230;;;;
2023/03/14 00:54:13;;;;;;;5.5;2.6;;;;;;;9.5;62;97210;;;;
2023/03/14 01:05:13;;;;;;;5.5;2.6;;;;;;;9.2;62.7;97180;;;;
2023/03/14 01:15:13;;;;;;;4.8;2.3;;;;;;;9;63.8;97130;;;;
2023/03/14 01:26:13;;;;;;;4.8;2.3;;;;;;;8.9;64.2;97110;;;;
2023/03/14 01:36:13;;;;;;;4.8;2.3;;;;;;;9;64.3;97100;;;;
2023/03/14 01:47:13;;;;;;;4.3;2.2;;;;;;;9.3;64;97090;;;;
2023/03/14 01:57:13;;;;;;;4.3;2.2;;;;;;;9.6;63.2;97080;;;;
2023/03/14 02:07:13;;;;;;;4.3;2.2;;;;;;;9.7;62.6;97070;;;;
2023/03/14 02:18:13;;;;;;;5.1;2.4;;;;;;;9.6;62.9;97030;;;;
2023/03/14 02:28:13;;;;;;;5.1;2.4;;;;;;;9.8;62.4;97010;;;;
2023/03/14 02:38:13;;;;;;;5.1;2.4;;;;;;;10.1;61.7;96970;;;;
2023/03/14 02:49:13;;;;;;;4.9;2.4;;;;;;;10.3;61.1;96960;;;;
2023/03/14 02:59:13;;;;;;;4.9;2.4;;;;;;;10.6;60.6;96940;;;;
2023/03/14 03:09:13;;;;;;;4.9;2.4;;;;;;;10.9;59.7;96920;;;;
2023/03/14 03:19:14;;;;;;;4.3;2.4;;;;;;;11;59.1;96920;;;;
2023/03/14 03:30:13;;;;;;;4.3;2.4;;;;;;;11;59;96920;;;;
2023/03/14 03:41:13;;;;;;;4.3;2.1;;;;;;;11.1;57.9;96920;;;;
2023/03/14 03:51:13;;;;;;;4.3;2.1;;;;;;;11.2;58;96920;;;;
2023/03/14 04:01:14;;;;;;;4.3;2.1;;;;;;;11.1;57.7;96940;;;;
2023/03/14 04:12:13;;;;;;;5.2;2.8;;;;;;;10.3;60.1;96970;;;;
2023/03/14 04:22:13;;;;;;;5.2;2.8;;;;;;;9.4;62.4;96970;;;;
2023/03/14 04:33:16;;;;;;;5.2;2.8;;;;;;;8.7;64.1;96990;;;;
2023/03/14 04:44:13;;;;;;;7.8;5.1;;;;;;;8.2;65.7;97000;;;;
2023/03/14 04:54:13;;;;;;;7.8;5.1;;;;;;;7.7;67.4;97030;;;;
2023/03/14 05:04:13;;;;;;;7.8;5.1;;;;;;;7.2;68.9;97010;;;;
2023/03/14 05:15:13;;;;;;;8;4.6;;;;;;;7;69.3;97020;;;;
2023/03/14 05:25:13;;;;;;;8;4.6;;;;;;;6.9;70;97000;;;;
2023/03/14 05:36:13;;;;;;;8;4.6;;;;;;;7.2;71.1;96970;;;;
2023/03/14 05:47:13;;;;;;;7.6;3.7;;;;;;;7.5;70.7;96960;;;;
2023/03/14 05:58:13;;;;;;;7.6;3.7;;;;;;;8;70;96970;;;;
2023/03/14 06:08:13;;;;;;;7.6;3.7;;;;;;;8.4;69.7;96970;;;;
2023/03/14 06:19:13;;;;;;;7.3;4.2;;;;;;;8.8;69.6;96950;;;;
2023/03/14 06:29:13;;;;;;;7.3;4.2;;;;;;;9.3;68.4;96940;;;;
2023/03/14 06:39:13;;;;;;;7.5;5.1;;;;;;;10;66.6;96940;;;;
2023/03/14 06:50:13;;;;;;;7.5;5.1;;;;;;;10.3;66;96910;;;;
2023/03/14 07:00:14;;;;;;;7.5;5.1;;;;;;;10.9;65.3;96910;;;;
2023/03/14 07:11:13;;;;;;;12.8;6.1;;;;;;;11.7;64.3;96900;;;;
2023/03/14 07:22:13;;;;;;;12.8;6.1;;;;;;;12.5;61;96900;;;;
2023/03/14 07:32:14;;;;;;;12.8;6.1;;;;;;;13.2;59.9;96900;;;;
2023/03/14 07:42:13;;;;;;;10.5;6.9;;;;;;;13.6;58.5;96890;;;;
2023/03/14 07:53:13;;;;;;;10.5;6.9;;;;;;;14.1;57.2;96910;;;;
2023/03/14 08:04:13;;;;;;;10.5;6.9;;;;;;;14.5;53.8;96910;;;;
2023/03/14 08:14:13;;;;;;;13.5;6;;;;;;;14.6;52.9;96920;;;;
2023/03/14 08:25:13;;;;;;;13.5;6;;;;;;;14.8;54.1;96910;;;;
2023/03/14 08:36:13;;;;;;;13.5;6;;;;;;;15.2;53.6;96900;;;;
2023/03/14 08:47:13;;;;;;;10.9;4.6;;;;;;;15.4;52.1;96890;;;;
2023/03/14 08:57:13;;;;;;;10.9;4.6;;;;;;;15.6;51;96900;;;;
2023/03/14 09:07:13;;;;;;;10.9;4.6;;;;;;;15.6;50.3;96940;;;;
2023/03/14 09:18:13;;;;;;;7.1;3.8;;;;;;;15.4;50.1;96930;;;;
2023/03/14 09:29:13;;;;;;;7.1;3.8;;;;;;;15.5;49.8;96930;;;;
2023/03/14 09:39:14;;;;;;;6.5;3.3;;;;;;;15.7;50.3;96940;;;;
2023/03/14 09:50:14;;;;;;;6.5;3.3;;;;;;;15.8;49.6;96950;;;;
2023/03/14 10:01:13;;;;;;;6.5;3.3;;;;;;;16;49.1;96960;;;;
2023/03/14 10:11:13;;;;;;;4.7;2.7;;;;;;;16.4;48.8;96970;;;;
2023/03/14 10:21:13;;;;;;;4.7;2.7;;;;;;;16.9;49;96970;;;;
2023/03/14 10:32:13;;;;;;;4.7;2.7;;;;;;;17.3;48;96970;;;;
2023/03/14 10:42:13;;;;;;;4.9;3.1;;;;;;;17.6;46.7;96980;;;;
2023/03/14 10:52:13;;;;;;;4.9;3.1;;;;;;;17.4;46.8;96960;;;;
2023/03/14 11:02:13;;;;;;;4.9;3.1;;;;;;;17;48.1;96960;;;;
2023/03/14 11:12:14;;;;;;;6.6;2.9;;;;;;;16.7;49.6;96960;;;;
2023/03/14 11:23:14;;;;;;;6.6;2.9;;;;;;;16.2;50.7;96950;;;;
2023/03/14 11:34:14;;;;;;;6.6;2.9;;;;;;;15.9;51.7;96940;;;;
2023/03/14 11:45:14;;;;;;;6.6;3.1;;;;;;;15.8;51.6;96940;;;;
2023/03/14 11:55:14;;;;;;;6.6;3.1;;;;;;;15.5;51.3;96950;;;;
2023/03/14 12:06:14;;;;;;;6.6;3.1;;;;;;;15.2;51.8;96940;;;;
2023/03/14 12:17:13;;;;;;;9.3;3.3;;;;;;;15.1;52.3;96940;;;;
2023/03/14 12:27:13;;;;;;;9.3;3.3;;;;;;;15;52.8;96920;;;;
2023/03/14 12:37:14;;;;;;;9.3;3.3;;;;;;;15.1;52.8;96920;;;;
2023/03/14 12:48:14;;;;;;;6.9;3.3;;;;;;;15.3;53.1;96900;;;;
2023/03/14 12:58:14;;;;;;;6.9;3.3;;;;;;;15.2;53.8;96910;;;;
2023/03/14 13:08:14;;;;;;;6.9;3.3;;;;;;;15;54.8;96910;;;;
2023/03/14 13:19:14;;;;;;;8.9;4.2;;;;;;;14.7;56;96930;;;;
2023/03/14 13:29:14;;;;;;;8.9;4.2;;;;;;;14.6;57.1;96930;;;;
2023/03/14 13:40:14;;;;;;;5.9;3.3;;;;;;;14.4;58.1;96940;;;;
2023/03/14 13:50:14;;;;;;;5.9;3.3;;;;;;;14.3;58.6;96960;;;;
2023/03/14 14:00:15;;;;;;;5.9;3.3;;;;;;;14.1;59.3;96970;;;;
2023/03/14 14:11:14;;;;;;;9.9;4.4;;;;;;;13.8;61.1;96990;;;;
2023/03/14 14:22:14;;;;;;;9.9;4.4;;;;;;;13.7;60.8;96990;;;;
2023/03/14 14:32:14;;;;;;;9.9;4.4;;;;;;;13.5;61.5;96980;;;;
2023/03/14 14:42:14;;;;;;;6.6;4;;;;;;;13.2;63.7;97000;;;;
2023/03/14 14:52:14;;;;;;;6.6;4;;;;;;;12.8;66;96990;;;;
2023/03/14 15:02:14;;;;;;;6.6;4;;;;;;;12.6;67.2;96990;;;;
2023/03/14 15:12:14;;;;;;;11.1;5.4;;;;;;;12.4;68.1;97010;;;;
2023/03/14 15:23:14;;;;;;;11.1;5.4;;;;;;;12.3;68.7;97000;;;;
2023/03/14 15:33:14;;;;;;;11.1;5.4;;;;;;;12.2;69.6;97010;;;;
2023/03/14 15:43:14;;;;;;;11.4;5.4;;;;;;;12.1;70.3;97030;;;;
2023/03/14 15:54:14;;;;;;;11.4;5.4;;;;;;;12.1;71;97040;;;;
2023/03/14 16:05:14;;;;;;;11.4;5.4;;;;;;;11.9;71.9;97040;;;;
2023/03/14 16:15:14;;;;;;;12.2;6.6;;;;;;;11.8;73.4;97050;;;;
2023/03/14 16:26:14;;;;;;;12.2;6.6;;;;;;;11.6;75;97050;;;;
2023/03/14 16:36:14;;;;;;;12.2;6.6;;;;;;;11.5;75.5;97040;;;;
2023/03/14 16:47:14;;;;;;;9.5;5.7;;;;;;;11.3;76.6;97050;;;;
2023/03/14 16:57:14;;;;;;;9.5;5.7;;;;;;;11.2;77.6;97050;;;;
2023/03/14 17:08:14;;;;;;;9.5;5.7;;;;;;;11;78.9;97040;;;;
2023/03/14 17:18:14;;;;;;;8;5.9;;;;;;;10.8;80.2;97000;;;;
2023/03/14 17:29:14;;;;;;;8;5.9;;;;;;;10.8;80;96960;;;;
2023/03/14 17:39:14;;;;;;;20.7;14.7;;;;;;;10.6;80.2;96930;;;;
2023/03/14 17:49:14;;;;;;;20.7;14.7;;;;;;;10.6;79.7;96970;;;;
2023/03/14 18:00:14;;;;;;;20.7;14.7;;;;;;;10.6;79.8;96990;;;;
2023/03/14 18:10:15;;;;;;;13.6;9.1;;;;;;;10.7;78.8;97010;;;;
2023/03/14 18:20:14;;;;;;;13.6;9.1;;;;;;;10.8;78.1;97030;;;;
2023/03/14 18:30:14;;;;;;;13.6;9.1;;;;;;;10.8;77.8;97020;;;;
2023/03/14 18:41:14;;;;;;;12.3;7.7;;;;;;;10.7;77.2;97020;;;;
2023/03/14 18:52:14;;;;;;;12.3;7.7;;;;;;;10.5;76.9;97040;;;;
2023/03/14 19:02:14;;;;;;;12.3;7.7;;;;;;;10.3;76.6;97040;;;;
2023/03/14 19:13:14;;;;;;;11;6.6;;;;;;;10;76.9;97050;;;;
2023/03/14 19:24:14;;;;;;;11;6.6;;;;;;;9.6;77.6;97060;;;;
2023/03/14 19:34:14;;;;;;;11;6.6;;;;;;;9.1;78.1;97080;;;;
2023/03/14 19:44:14;;;;;;;17.5;12.6;;;;;;;8.8;78.7;97090;;;;
2023/03/14 19:54:14;;;;;;;;;;;;;;;;;;;;;
2023/03/14 20:04:14;;;;;;;17.5;12.6;;;;;;;8.7;79.6;97090;;;;
2023/03/14 20:14:15;;;;;;;11.5;6.9;;;;;;;8.6;79.3;97100;;;;
2023/03/14 20:25:15;;;;;;;11.5;6.9;;;;;;;8.4;78.8;97110;;;;
2023/03/14 20:35:22;;;;;;;11.5;6.9;;;;;;;8.2;78.7;97120;;;;
2023/03/14 20:45:14;;;;;;;11.9;6.9;;;;;;;9;77.1;97130;;;;
2023/03/14 20:56:14;;;;;;;11.9;6.9;;;;;;;9.3;76;97140;;;;
2023/03/14 21:06:14;;;;;;;11.9;6.9;;;;;;;9.4;75.6;97130;;;;
2023/03/14 21:16:14;;;;;;;3.9;2;;;;;;;9.3;75.9;97140;;;;
2023/03/14 21:26:14;;;;;;;3.9;2;;;;;;;9.1;75.8;97150;;;;
2023/03/14 21:36:14;;;;;;;3.9;2;;;;;;;8.9;75.9;97160;;;;
2023/03/14 21:47:14;;;;;;;5.3;2.7;;;;;;;8.7;76.2;97160;;;;
2023/03/14 21:57:14;;;;;;;5.3;2.7;;;;;;;8.6;76.4;97180;;;;
2023/03/14 22:08:14;;;;;;;3.7;1.9;;;;;;;8.8;76.2;97190;;;;
2023/03/14 22:18:14;;;;;;;3.7;1.9;;;;;;;8.9;76.1;97200;;;;
2023/03/14 22:28:14;;;;;;;3.7;1.9;;;;;;;9.1;75.9;97220;;;;
2023/03/14 22:38:14;;;;;;;4.3;2;;;;;;;9.3;75.4;97230;;;;
2023/03/14 22:49:14;;;;;;;4.3;2;;;;;;;9.6;75.2;97230;;;;
2023/03/14 23:00:15;;;;;;;4.3;2;;;;;;;9.6;74.8;97220;;;;
2023/03/14 23:11:14;;;;;;;4.5;2.2;;;;;;;9.7;74.7;97240;;;;
2023/03/14 23:22:14;;;;;;;4.5;2.2;;;;;;;9.9;74.2;97250;;;;
2023/03/14 23:32:14;;;;;;;4.5;2.2;;;;;;;10;73.8;97280;;;;
2023/03/14 23:43:14;;;;;;;4.5;2.5;;;;;;;10.1;73.5;97300;;;;
2023/03/14 23:53:14;;;;;;;4.5;2.5;;;;;;;10.2;73.8;97330;;;;
